createdAt,value
2023-04-14T00:00:55.994Z,99.46
2023-04-14T00:03:22.601Z,98.42
2023-04-14T00:05:49.030Z,100.00
2023-04-14T00:08:15.552Z,100.00
2023-04-14T00:10:41.954Z,100.00
2023-04-14T00:13:08.295Z,100.00
2023-04-14T00:15:34.638Z,100.00
2023-04-14T00:18:00.980Z,100.00
2023-04-14T00:20:27.322Z,99.90
2023-04-14T00:22:53.609Z,99.72
2023-04-14T00:25:19.950Z,97.37
2023-04-14T00:27:46.237Z,96.42
2023-04-14T00:30:15.212Z,97.19
2023-04-14T00:32:41.669Z,97.25
2023-04-14T00:35:08.405Z,97.00
2023-04-14T00:37:34.718Z,95.71
2023-04-14T00:40:01.180Z,96.46
2023-04-14T00:42:27.585Z,96.38
2023-04-14T00:44:53.910Z,96.76
2023-04-14T00:47:22.836Z,98.16
2023-04-14T00:49:49.580Z,96.12
2023-04-14T00:52:15.985Z,96.20
2023-04-14T00:54:42.374Z,96.25
2023-04-14T00:57:09.602Z,95.63
2023-04-14T00:59:36.964Z,94.86
2023-04-14T01:02:03.463Z,98.68
2023-04-14T01:04:44.669Z,99.44
2023-04-14T01:07:16.290Z,97.71
2023-04-14T01:09:42.767Z,96.14
2023-04-14T01:12:30.362Z,95.00
2023-04-14T01:15:11.901Z,95.37
2023-04-14T01:17:51.638Z,95.14
2023-04-14T01:20:35.604Z,96.32
2023-04-14T01:23:06.237Z,97.82
2023-04-14T01:25:57.593Z,98.65
2023-04-14T01:28:41.745Z,97.84
2023-04-14T01:31:23.210Z,97.12
2023-04-14T01:34:06.267Z,97.86
2023-04-14T01:36:39.944Z,96.62
2023-04-14T01:39:09.796Z,95.98
2023-04-14T01:41:40.994Z,96.48
2023-04-14T01:44:10.257Z,100.00
2023-04-14T01:46:37.194Z,99.11
2023-04-14T01:49:04.855Z,97.42
2023-04-14T01:51:33.173Z,95.48
2023-04-14T01:54:02.982Z,96.33
2023-04-14T01:56:29.736Z,97.76
2023-04-14T01:58:58.371Z,96.94
2023-04-14T02:01:27.743Z,96.53
2023-04-14T02:03:56.494Z,95.56
2023-04-14T02:06:24.356Z,97.88
2023-04-14T02:08:51.529Z,98.57
2023-04-14T02:11:20.116Z,99.61
2023-04-14T02:13:48.079Z,96.63
2023-04-14T02:16:15.104Z,96.70
2023-04-14T02:18:41.753Z,97.73
2023-04-14T02:21:09.715Z,96.40
2023-04-14T02:23:37.494Z,95.02
2023-04-14T02:26:16.021Z,96.84
2023-04-14T02:29:06.236Z,96.79
2023-04-14T02:31:35.080Z,96.46
2023-04-14T02:34:06.040Z,99.56
2023-04-14T02:36:41.986Z,100.00
2023-04-14T02:39:22.935Z,100.00
2023-04-14T02:41:56.899Z,97.74
2023-04-14T02:44:29.278Z,99.36
2023-04-14T02:47:06.209Z,98.99
2023-04-14T02:49:37.996Z,98.39
2023-04-14T02:52:06.476Z,98.76
2023-04-14T02:54:38.950Z,97.44
2023-04-14T02:57:06.243Z,98.15
2023-04-14T02:59:37.625Z,98.16
2023-04-14T03:02:09.181Z,99.14
2023-04-14T03:04:41.709Z,97.08
2023-04-14T03:07:17.497Z,100.00
2023-04-14T03:09:45.169Z,100.00
2023-04-14T03:12:13.945Z,100.00
2023-04-14T03:14:43.103Z,100.00
2023-04-14T03:17:11.213Z,100.00
2023-04-14T03:19:40.660Z,100.00
2023-04-14T03:22:13.898Z,100.00
2023-04-14T03:24:41.996Z,100.00
2023-04-14T03:27:18.903Z,100.00
2023-04-14T03:29:50.806Z,100.00
2023-04-14T03:32:19.026Z,100.00
2023-04-14T03:34:54.010Z,100.00
2023-04-14T03:37:26.024Z,100.00
2023-04-14T03:39:52.850Z,100.00
2023-04-14T03:42:21.294Z,100.00
2023-04-14T03:44:53.097Z,100.00
2023-04-14T03:47:23.362Z,100.00
2023-04-14T03:49:54.346Z,100.00
2023-04-14T03:52:23.727Z,100.00
2023-04-14T03:54:54.457Z,100.00
2023-04-14T03:57:23.071Z,100.00
2023-04-14T03:59:51.628Z,100.00
2023-04-14T04:02:22.373Z,100.00
2023-04-14T04:04:49.980Z,100.00
2023-04-14T04:07:19.305Z,100.00
2023-04-14T04:09:47.177Z,100.00
2023-04-14T04:12:16.272Z,100.00
2023-04-14T04:14:42.621Z,100.00
2023-04-14T04:17:13.647Z,100.00
2023-04-14T04:19:43.355Z,100.00
2023-04-14T04:22:14.161Z,100.00
2023-04-14T04:24:42.350Z,100.00
2023-04-14T04:27:26.556Z,100.00
2023-04-14T04:29:57.091Z,100.00
2023-04-14T04:32:24.890Z,100.00
2023-04-14T04:34:52.916Z,100.00
2023-04-14T04:37:19.728Z,100.00
2023-04-14T04:39:48.369Z,100.00
2023-04-14T04:42:16.406Z,100.00
2023-04-14T04:44:43.077Z,100.00
2023-04-14T04:47:10.147Z,100.00
2023-04-14T04:49:37.307Z,100.00
2023-04-14T04:52:03.759Z,99.75
2023-04-14T04:54:30.256Z,99.61
2023-04-14T04:56:58.529Z,100.00
2023-04-14T04:59:24.935Z,100.00
2023-04-14T05:01:51.706Z,100.00
2023-04-14T05:04:18.203Z,100.00
2023-04-14T05:06:44.601Z,100.00
2023-04-14T05:09:11.015Z,100.00
2023-04-14T05:11:37.416Z,100.00
2023-04-14T05:14:03.936Z,100.00
2023-04-14T05:16:31.329Z,100.00
2023-04-14T05:18:58.073Z,100.00
2023-04-14T05:21:24.697Z,100.00
2023-04-14T05:23:51.239Z,100.00
2023-04-14T05:28:47.099Z,100.00
2023-04-14T05:31:13.479Z,100.00
2023-04-14T05:33:39.951Z,100.00
2023-04-14T05:36:06.727Z,100.00
2023-04-14T05:38:33.201Z,100.00
2023-04-14T05:40:59.495Z,100.00
2023-04-14T05:43:25.936Z,100.00
2023-04-14T05:45:52.496Z,100.00
2023-04-14T05:48:18.852Z,100.00
2023-04-14T05:50:45.357Z,100.00
2023-04-14T05:53:12.513Z,100.00
2023-04-14T05:55:41.919Z,100.00
2023-04-14T05:58:08.301Z,100.00
2023-04-14T06:00:34.673Z,100.00
2023-04-14T06:03:01.264Z,100.00
2023-04-14T06:05:27.774Z,100.00
2023-04-14T06:07:54.123Z,100.00
2023-04-14T06:10:20.642Z,100.00
2023-04-14T06:12:47.015Z,100.00
2023-04-14T06:15:13.312Z,100.00
2023-04-14T06:17:39.936Z,100.00
2023-04-14T06:20:07.281Z,100.00
2023-04-14T06:22:33.577Z,100.00
2023-04-14T06:24:59.958Z,100.00
2023-04-14T06:27:26.345Z,100.00
2023-04-14T06:29:52.931Z,100.00
2023-04-14T06:32:19.899Z,100.00
2023-04-14T06:34:48.840Z,100.00
2023-04-14T06:37:16.286Z,100.00
2023-04-14T06:39:42.708Z,100.00
2023-04-14T06:42:12.898Z,100.00
2023-04-14T06:44:40.249Z,100.00
2023-04-14T06:47:07.069Z,100.00
2023-04-14T06:49:33.374Z,100.00
2023-04-14T06:51:59.801Z,100.00
2023-04-14T06:54:27.032Z,100.00
2023-04-14T06:56:53.326Z,100.00
2023-04-14T06:59:21.373Z,100.00
2023-04-14T07:01:47.808Z,100.00
2023-04-14T07:04:15.294Z,99.63
2023-04-14T07:06:41.664Z,100.00
2023-04-14T07:09:07.988Z,99.91
2023-04-14T07:11:34.313Z,99.53
2023-04-14T07:14:00.918Z,99.36
2023-04-14T07:16:27.460Z,98.44
2023-04-14T07:18:53.786Z,99.17
2023-04-14T07:21:20.158Z,98.40
2023-04-14T07:23:46.482Z,98.99
2023-04-14T07:26:12.830Z,97.99
2023-04-14T07:28:39.183Z,99.51
2023-04-14T07:31:09.544Z,97.26
2023-04-14T07:33:36.181Z,98.95
2023-04-14T07:36:07.859Z,100.00
2023-04-14T07:38:34.182Z,99.38
2023-04-14T07:41:03.857Z,97.62
2023-04-14T07:43:35.028Z,98.10
2023-04-14T07:46:05.945Z,97.45
2023-04-14T07:48:33.584Z,96.50
2023-04-14T07:50:59.945Z,93.92
2023-04-14T07:53:26.312Z,95.17
2023-04-14T07:55:52.719Z,94.80
2023-04-14T07:58:19.046Z,94.28
2023-04-14T08:00:45.725Z,94.33
2023-04-14T08:03:13.442Z,93.96
2023-04-14T08:05:40.186Z,93.24
2023-04-14T08:08:06.923Z,91.40
2023-04-14T08:10:33.205Z,93.06
2023-04-14T08:13:01.574Z,92.84
2023-04-14T08:15:29.513Z,93.00
2023-04-14T08:17:55.892Z,96.71
2023-04-14T08:20:22.755Z,95.56
2023-04-14T08:22:49.071Z,93.99
2023-04-14T08:25:15.520Z,93.83
2023-04-14T08:27:41.853Z,92.59
2023-04-14T08:30:10.224Z,92.24
2023-04-14T08:32:37.735Z,92.29
2023-04-14T08:35:37.399Z,90.41
2023-04-14T08:37:50.686Z,91.02
2023-04-14T08:40:19.226Z,91.29
2023-04-14T08:42:48.538Z,90.38
2023-04-14T08:45:14.956Z,91.69
2023-04-14T08:47:43.404Z,90.07
2023-04-14T08:50:15.342Z,89.30
2023-04-14T08:52:42.615Z,86.69
2023-04-14T08:55:10.967Z,87.58
2023-04-14T08:57:38.367Z,85.24
2023-04-14T09:00:05.772Z,85.20
2023-04-14T09:02:33.581Z,84.19
2023-04-14T09:05:00.473Z,83.76
2023-04-14T09:07:28.244Z,79.44
2023-04-14T09:09:57.334Z,79.91
2023-04-14T09:12:26.305Z,79.30
2023-04-14T09:14:54.003Z,74.37
2023-04-14T09:17:20.419Z,72.69
2023-04-14T09:20:35.923Z,75.55
2023-04-14T09:22:34.489Z,77.72
2023-04-14T09:25:01.089Z,73.15
2023-04-14T09:27:28.736Z,71.75
2023-04-14T09:29:57.337Z,75.06
2023-04-14T09:32:23.814Z,73.04
2023-04-14T09:34:55.542Z,72.37
2023-04-14T09:37:26.379Z,72.26
2023-04-14T09:39:55.306Z,68.17
2023-04-14T09:42:37.362Z,66.07
2023-04-14T09:45:05.578Z,66.32
2023-04-14T09:47:32.759Z,65.91
2023-04-14T09:50:04.188Z,67.47
2023-04-14T09:52:44.701Z,65.86
2023-04-14T09:55:13.812Z,64.42
2023-04-14T09:57:47.035Z,64.58
2023-04-14T10:00:16.244Z,63.25
2023-04-14T10:02:55.626Z,62.02
2023-04-14T10:05:26.970Z,62.86
2023-04-14T10:07:53.462Z,61.78
2023-04-14T10:10:19.835Z,61.46
2023-04-14T10:12:46.849Z,59.45
2023-04-14T10:15:14.751Z,58.73
2023-04-14T10:17:42.328Z,56.81
2023-04-14T10:20:10.214Z,57.80
2023-04-14T10:22:39.671Z,56.29
2023-04-14T10:25:09.095Z,58.77
2023-04-14T10:27:36.559Z,58.98
2023-04-14T10:30:05.483Z,56.54
2023-04-14T10:32:35.209Z,56.38
2023-04-14T10:35:08.740Z,54.45
2023-04-14T10:37:35.558Z,54.10
2023-04-14T10:40:07.254Z,54.00
2023-04-14T10:42:55.917Z,53.13
2023-04-14T10:45:22.692Z,56.05
2023-04-14T10:47:52.541Z,52.16
2023-04-14T10:50:22.361Z,50.84
2023-04-14T10:52:50.764Z,51.26
2023-04-14T10:55:21.106Z,52.89
2023-04-14T10:57:47.949Z,51.56
2023-04-14T11:00:22.153Z,48.48
2023-04-14T11:03:11.737Z,47.60
2023-04-14T11:05:53.768Z,50.25
2023-04-14T11:08:36.276Z,51.21
2023-04-14T11:11:06.973Z,54.17
2023-04-14T11:13:34.918Z,53.97
2023-04-14T11:16:07.034Z,51.89
2023-04-14T11:18:35.539Z,50.39
2023-04-14T11:21:07.328Z,51.29
2023-04-14T11:23:35.121Z,48.18
2023-04-14T11:26:01.972Z,49.26
2023-04-14T11:28:36.018Z,50.20
2023-04-14T11:31:05.073Z,51.92
2023-04-14T11:33:33.879Z,51.70
2023-04-14T11:36:02.267Z,51.55
2023-04-14T11:38:29.576Z,53.09
2023-04-14T11:40:56.712Z,53.81
2023-04-14T11:43:24.580Z,52.89
2023-04-14T11:45:51.988Z,53.67
2023-04-14T11:48:20.011Z,54.71
2023-04-14T11:50:47.784Z,52.67
2023-04-14T11:53:17.348Z,54.28
2023-04-14T11:55:48.439Z,53.28
2023-04-14T11:58:15.943Z,53.39
2023-04-14T12:00:43.063Z,53.64
2023-04-14T12:03:09.546Z,53.65
2023-04-14T12:05:37.472Z,54.53
2023-04-14T12:08:08.442Z,56.21
2023-04-14T12:10:35.713Z,55.99
2023-04-14T12:13:04.028Z,56.61
2023-04-14T12:15:38.880Z,56.75
2023-04-14T12:18:08.685Z,58.33
2023-04-14T12:21:01.279Z,57.24
2023-04-14T12:23:27.887Z,55.73
2023-04-14T12:25:54.249Z,55.83
2023-04-14T12:28:30.268Z,54.00
2023-04-14T12:30:59.439Z,55.21
2023-04-14T12:33:30.685Z,53.04
2023-04-14T12:36:13.231Z,53.03
2023-04-14T12:38:39.672Z,52.01
2023-04-14T12:41:06.114Z,50.54
2023-04-14T12:43:34.655Z,52.01
2023-04-14T12:46:03.664Z,51.62
2023-04-14T12:48:46.740Z,52.89
2023-04-14T12:51:18.547Z,55.47
2023-04-14T12:53:46.731Z,54.07
2023-04-14T12:56:19.405Z,52.71
2023-04-14T12:58:47.252Z,52.13
2023-04-14T13:01:16.433Z,51.96
2023-04-14T13:03:57.476Z,54.67
2023-04-14T13:06:25.160Z,52.84
2023-04-14T13:08:53.809Z,52.71
2023-04-14T13:11:23.250Z,53.48
2023-04-14T13:13:50.992Z,54.92
2023-04-14T13:16:19.227Z,55.86
2023-04-14T13:18:47.719Z,57.63
2023-04-14T13:21:14.465Z,58.03
2023-04-14T13:23:41.455Z,57.81
2023-04-14T13:26:08.201Z,57.45
2023-04-14T13:28:34.616Z,57.67
2023-04-14T13:31:01.077Z,56.87
2023-04-14T13:33:27.509Z,58.78
2023-04-14T13:35:55.376Z,57.36
2023-04-14T13:38:21.777Z,57.90
2023-04-14T13:40:48.300Z,57.82
2023-04-14T13:43:17.041Z,57.84
2023-04-14T13:45:43.479Z,58.14
2023-04-14T13:48:09.826Z,57.71
2023-04-14T13:50:36.168Z,57.14
2023-04-14T13:53:03.110Z,57.62
2023-04-14T13:55:29.449Z,56.05
2023-04-14T13:57:55.738Z,55.07
2023-04-14T14:00:22.138Z,54.59
2023-04-14T14:02:48.652Z,54.75
2023-04-14T14:05:15.567Z,53.42
2023-04-14T14:07:41.919Z,53.77
2023-04-14T14:10:10.382Z,53.51
2023-04-14T14:12:37.414Z,52.99
2023-04-14T14:15:05.397Z,53.35
2023-04-14T14:17:31.985Z,54.12
2023-04-14T14:19:58.672Z,53.59
2023-04-14T14:22:25.462Z,54.72
2023-04-14T14:24:52.228Z,52.24
2023-04-14T14:27:18.558Z,50.24
2023-04-14T14:29:44.947Z,51.64
2023-04-14T14:32:11.268Z,51.60
2023-04-14T14:34:38.896Z,52.46
2023-04-14T14:37:05.583Z,52.13
2023-04-14T14:39:32.552Z,52.00
2023-04-14T14:41:59.180Z,52.02
2023-04-14T14:44:25.844Z,52.67
2023-04-14T14:46:52.990Z,51.66
2023-04-14T14:49:19.907Z,52.48
2023-04-14T14:51:46.275Z,52.12
2023-04-14T14:54:12.752Z,52.61
2023-04-14T14:56:39.262Z,53.02
2023-04-14T14:59:05.757Z,52.49
2023-04-14T15:01:33.054Z,51.74
2023-04-14T15:03:59.582Z,50.52
2023-04-14T15:06:27.486Z,51.14
2023-04-14T15:08:53.862Z,51.30
2023-04-14T15:11:21.175Z,51.28
2023-04-14T15:13:47.605Z,52.15
2023-04-14T15:16:14.030Z,47.54
2023-04-14T15:18:40.388Z,48.23
2023-04-14T15:21:06.881Z,49.67
2023-04-14T15:23:36.883Z,48.30
2023-04-14T15:26:03.295Z,49.90
2023-04-14T15:28:30.518Z,48.53
2023-04-14T15:30:56.883Z,49.01
2023-04-14T15:33:23.705Z,48.44
2023-04-14T15:35:50.880Z,48.90
2023-04-14T15:38:17.244Z,49.93
2023-04-14T15:40:43.560Z,49.92
2023-04-14T15:43:11.037Z,49.24
2023-04-14T15:45:37.460Z,50.23
2023-04-14T15:48:04.061Z,51.00
2023-04-14T15:50:30.547Z,49.78
2023-04-14T15:52:57.619Z,51.66
2023-04-14T15:55:23.995Z,47.92
2023-04-14T15:57:51.000Z,47.53
2023-04-14T16:00:17.640Z,48.49
2023-04-14T16:02:46.308Z,48.10
2023-04-14T16:05:13.108Z,47.28
2023-04-14T16:07:39.741Z,46.89
2023-04-14T16:10:06.832Z,47.57
2023-04-14T16:12:35.084Z,48.14
2023-04-14T16:15:01.591Z,47.08
2023-04-14T16:17:28.310Z,46.26
2023-04-14T16:19:54.747Z,46.22
2023-04-14T16:22:21.358Z,47.22
2023-04-14T16:24:47.661Z,47.73
2023-04-14T16:27:14.220Z,48.23
2023-04-14T16:29:41.511Z,48.05
2023-04-14T16:32:08.193Z,48.16
2023-04-14T16:34:34.950Z,48.49
2023-04-14T16:37:01.306Z,48.93
2023-04-14T16:39:27.900Z,48.93
2023-04-14T16:41:54.723Z,49.93
2023-04-14T16:44:21.236Z,48.73
2023-04-14T16:46:47.613Z,49.67
2023-04-14T16:49:14.545Z,50.39
2023-04-14T16:51:40.829Z,50.71
2023-04-14T16:54:07.118Z,50.80
2023-04-14T16:56:36.215Z,51.40
2023-04-14T16:59:03.888Z,51.28
2023-04-14T17:01:30.578Z,51.45
2023-04-14T17:03:57.245Z,51.13
2023-04-14T17:06:23.885Z,51.40
2023-04-14T17:08:50.216Z,51.94
2023-04-14T17:11:16.549Z,52.38
2023-04-14T17:13:42.841Z,51.48
2023-04-14T17:16:10.787Z,51.13
2023-04-14T17:18:38.017Z,51.28
2023-04-14T17:21:05.990Z,51.10
2023-04-14T17:23:35.526Z,51.22
2023-04-14T17:26:01.859Z,51.54
2023-04-14T17:28:28.682Z,51.47
2023-04-14T17:30:55.545Z,51.79
2023-04-14T17:33:22.149Z,50.99
2023-04-14T17:35:48.581Z,51.25
2023-04-14T17:38:14.960Z,50.70
2023-04-14T17:40:41.451Z,50.72
2023-04-14T17:43:07.753Z,51.22
2023-04-14T17:45:34.991Z,52.22
2023-04-14T17:48:01.425Z,52.68
2023-04-14T17:50:29.023Z,53.39
2023-04-14T17:52:55.536Z,54.35
2023-04-14T17:55:22.420Z,58.21
2023-04-14T17:57:50.061Z,59.49
2023-04-14T18:00:17.093Z,61.47
2023-04-14T18:02:43.505Z,62.19
2023-04-14T18:05:11.159Z,63.28
2023-04-14T18:07:37.857Z,63.00
2023-04-14T18:10:04.792Z,64.61
2023-04-14T18:12:31.232Z,65.03
2023-04-14T18:14:57.519Z,65.18
2023-04-14T18:17:24.682Z,65.12
2023-04-14T18:19:51.329Z,65.17
2023-04-14T18:22:18.186Z,64.94
2023-04-14T18:29:42.963Z,66.68
2023-04-14T18:32:09.313Z,66.79
2023-04-14T18:34:35.721Z,67.19
2023-04-14T18:37:03.730Z,66.65
2023-04-14T18:39:34.231Z,68.22
2023-04-14T18:42:00.742Z,67.04
2023-04-14T18:44:27.364Z,67.56
2023-04-14T18:46:55.062Z,67.84
2023-04-14T18:49:22.141Z,67.75
2023-04-14T18:51:48.619Z,67.93
2023-04-14T18:54:15.022Z,68.36
2023-04-14T18:56:41.338Z,69.21
2023-04-14T18:59:07.661Z,68.73
2023-04-14T19:01:35.866Z,68.41
2023-04-14T19:04:03.004Z,68.25
2023-04-14T19:06:29.454Z,68.15
2023-04-14T19:08:55.968Z,68.15
2023-04-14T19:11:22.313Z,69.22
2023-04-14T19:13:48.689Z,69.24
2023-04-14T19:16:15.044Z,69.06
2023-04-14T19:18:41.725Z,68.45
2023-04-14T19:21:08.893Z,68.51
2023-04-14T19:23:36.668Z,67.75
2023-04-14T19:26:03.491Z,68.22
2023-04-14T19:28:30.019Z,69.77
2023-04-14T19:30:56.353Z,68.96
2023-04-14T19:33:23.444Z,68.80
2023-04-14T19:35:50.985Z,68.59
2023-04-14T19:38:17.485Z,70.53
2023-04-14T19:40:50.171Z,69.55
2023-04-14T19:43:18.019Z,70.45
2023-04-14T19:45:54.211Z,69.62
2023-04-14T19:48:23.779Z,70.56
2023-04-14T19:50:54.923Z,71.22
2023-04-14T19:53:22.988Z,71.33
2023-04-14T19:55:50.809Z,72.10
2023-04-14T19:58:20.070Z,72.77
2023-04-14T20:00:50.763Z,71.82
2023-04-14T20:03:17.662Z,71.66
2023-04-14T20:05:44.049Z,71.54
2023-04-14T20:08:10.446Z,71.74
2023-04-14T20:10:36.786Z,71.07
2023-04-14T20:13:03.607Z,73.09
2023-04-14T20:15:30.129Z,71.90
2023-04-14T20:17:57.010Z,71.85
2023-04-14T20:20:23.436Z,71.81
2023-04-14T20:22:49.898Z,72.60
2023-04-14T20:25:17.728Z,73.16
2023-04-14T20:27:44.039Z,73.13
2023-04-14T20:30:12.294Z,73.16
2023-04-14T20:32:38.675Z,74.43
2023-04-14T20:35:05.534Z,74.34
2023-04-14T20:37:31.983Z,75.26
2023-04-14T20:39:58.272Z,75.34
2023-04-14T20:42:25.108Z,74.16
2023-04-14T20:44:51.475Z,74.14
2023-04-14T20:47:17.756Z,75.65
2023-04-14T20:49:44.881Z,77.01
2023-04-14T20:52:11.227Z,75.38
2023-04-14T20:54:37.531Z,74.81
2023-04-14T20:57:05.369Z,74.76
2023-04-14T20:59:32.578Z,74.73
2023-04-14T21:01:59.003Z,75.90
2023-04-14T21:04:25.873Z,75.09
2023-04-14T21:06:52.723Z,75.07
2023-04-14T21:09:24.689Z,74.41
2023-04-14T21:12:14.916Z,76.38
2023-04-14T21:15:47.837Z,75.72
2023-04-14T21:17:24.887Z,75.03
2023-04-14T21:19:51.229Z,74.41
2023-04-14T21:22:17.607Z,73.66
2023-04-14T21:24:48.485Z,73.95
2023-04-14T21:27:17.199Z,73.51
2023-04-14T21:29:43.907Z,74.48
2023-04-14T21:32:10.754Z,76.30
2023-04-14T21:34:37.172Z,75.98
2023-04-14T21:37:04.258Z,76.37
2023-04-14T21:39:32.933Z,77.64
2023-04-14T21:42:00.230Z,77.41
2023-04-14T21:44:27.132Z,76.60
2023-04-14T21:46:54.365Z,75.35
2023-04-14T21:49:21.063Z,75.94
2023-04-14T21:51:47.401Z,77.32
2023-04-14T21:54:13.921Z,76.03
2023-04-14T21:56:40.303Z,76.91
2023-04-14T21:59:06.972Z,75.88
2023-04-14T22:01:33.893Z,74.78
2023-04-14T22:04:00.996Z,75.47
2023-04-14T22:06:30.004Z,76.68
2023-04-14T22:08:56.314Z,75.35
2023-04-14T22:11:23.094Z,77.77
2023-04-14T22:13:49.486Z,76.15
2023-04-14T22:16:19.760Z,75.03
2023-04-14T22:18:46.333Z,76.40
2023-04-14T22:21:15.674Z,77.58
2023-04-14T22:23:46.547Z,77.86
2023-04-14T22:26:13.408Z,77.38
2023-04-14T22:28:40.503Z,76.69
2023-04-14T22:31:07.494Z,78.90
2023-04-14T22:33:35.200Z,77.92
2023-04-14T22:36:05.387Z,75.93
2023-04-14T22:38:33.532Z,76.43
2023-04-14T22:41:01.603Z,76.51
2023-04-14T22:43:29.639Z,77.35
2023-04-14T22:45:56.583Z,77.38
2023-04-14T22:48:23.018Z,77.44
2023-04-14T22:50:49.439Z,77.41
2023-04-14T22:53:15.761Z,78.12
2023-04-14T22:55:42.751Z,79.58
2023-04-14T22:58:09.890Z,79.38
2023-04-14T23:00:36.189Z,77.95
2023-04-14T23:03:02.937Z,78.50
2023-04-14T23:05:29.454Z,79.57
2023-04-14T23:07:55.748Z,79.74
2023-04-14T23:10:22.053Z,79.48
2023-04-14T23:12:48.329Z,79.61
2023-04-14T23:15:14.662Z,79.76
2023-04-14T23:17:41.036Z,80.05
2023-04-14T23:20:08.199Z,80.20
2023-04-14T23:22:34.671Z,79.78
2023-04-14T23:25:01.240Z,80.92
2023-04-14T23:27:28.588Z,81.69
2023-04-14T23:29:54.868Z,81.63
2023-04-14T23:32:21.207Z,82.21
2023-04-14T23:34:48.271Z,79.89
2023-04-14T23:37:14.688Z,79.53
2023-04-14T23:39:41.214Z,80.87
2023-04-14T23:42:07.533Z,80.95
2023-04-14T23:44:33.904Z,80.69
2023-04-14T23:47:00.280Z,79.83
2023-04-14T23:49:34.810Z,81.51
2023-04-14T23:52:01.500Z,80.47
2023-04-14T23:54:27.852Z,80.28
2023-04-14T23:56:54.161Z,80.50
2023-04-14T23:59:20.487Z,81.85
